Share

Gillette, WY

Gillette-Campbell County (KGCC) Elev 4364 ft | 44.34 °N, 105.54 °W | Change Station

Current weather conditions updated 29 minutes ago

Clear
Clear
44 °F
Feels Like 44 °F
N
0
Wind Variable Wind from North
Sunrise 6:08 AM
Sunset 7:55 PM
Moon Waning Gibbous

Today is forecast to be nearly the same temperature as yesterday.

Pressure 30.25 in
Visibility 10.0 miles
Clouds Clear
Dew Point 28 °F
Humidity 53%
Rainfall 0.00 in
Snow Depth Not available.
UV 1 out of 16
Pollen 9.60 out of 12
Air Quality Not available.
Flu Activity Sporadic
METAR KGCC 211353Z AUTO 00000KT 10SM CLR 07/M02 A3026 RMK AO2 SLP242 T00671022 $

More Conditions Fewer Conditions

Pressure 30.25 in
Visibility 10.0 miles
Clouds Clear
Dew Point 28 °F
Humidity 53%
Rainfall 0.00 in
Snow Depth Not available.
UV 1 out of 16
Pollen 9.60 out of 12
Air Quality Not available.
Flu Activity Sporadic
METAR KGCC 211353Z AUTO 00000KT 10SM CLR 07/M02 A3026 RMK AO2 SLP242 T00671022 $

More Conditions Fewer Conditions

10-Day Weather Forecast

Almanac

Astronomy

Apr. 21, 2014 Rise Set
Actual Time 6:08 AM MDT 7:55 PM MDT
Civil Twilight 5:37 AM MDT 8:26 PM MDT
Nautical Twilight 4:59 AM MDT 9:04 PM MDT
Astronomical Twilight 4:18 AM MDT 9:45 PM MDT
Moon 1:30 AM MDT 11:35 AM MDT
Length of Visible Light 14h 48m
Length of Day
13h 46m
Tomorrow will be 2m 52s longer.
Waning Gibbous, 58% of the Moon is Illuminated
Today
Waning Gibbous
Apr 22
Last Quarter
Apr 29
New
May 6
First Quarter
May 14
Full

Today's Extremes

State Highs State Lows

Community

  • Bright Eyes
    Bright Eyes
  • Snowy Robin
    Snowy Robin
  • Sun Pillar and Geese
    Sun Pillar and Geese
  • Showers on the Way
    Showers on the Way
  • Easter Morning Fog
    Easter Morning Fog

WunderPhotos

Upload Photos

1,703,638 photos uploaded!

Nearby

Snow Depth

Station Depth Elevation
Cole Canyon 21 in 5910 ft
Hansen Sawmill 28 in 8360 ft
Cloud Peak Reservoir 66 in 9860 ft
Big Goose 43 in 7990 ft
Powder River Pass 47 in 9480 ft

Coastal Water Temperatures

Place Temperature
No Stations Reporting

Earthquake Activity

City Distance Mag. Time & Date
No recent earthquake activity has been reported nearby.
Minimum magnitude displayed is 2.5.

Nearby Weather Stations

Station Location Temp. Windchill Dew Point Humidity Wind Precip. Elev Updated Type
RAWS ECHETA WY, Gillette, WY 38 °F 34 °F 21 °F 49% South  at  5 mph 0.00 in / hr 4396 ft 6:51 AM MDT MADIS
(North Gillette), Gillette, WY 45.3 °F 45 °F 28 °F 50% NW  at  0.0 mph 0.00 in / hr 4610 ft 8:22 AM MDT Rapid Fire

Show More Stations Show Fewer Stations

What do you think?

We're not finished. Please let us know what you like, what you don't like, and what you are still missing.